Time;durP1;ratioP1;P1;durP2;ratioP2;P2;SDS_P1;SDS_P2;PMS_P1;PMS_P2;Temp;Humidity;BMP_temperature;BMP_pressure;BME280_temperature;BME280_humidity;BME280_pressure;Samples;Min_cycle;Max_cycle;Signal;HPM_P1;HPM_P2
2023/07/01 00:01:34;;;;;;;3.37;1.60;;;16.30;99.90;;;;;;5040812;28;20421;-73
2023/07/01 00:03:59;;;;;;;2.87;1.20;;;16.20;99.90;;;;;;5041295;28;20433;-73
2023/07/01 00:06:27;;;;;;;10.57;1.57;;;16.20;99.90;;;;;;5034480;28;20182;-73
2023/07/01 00:08:53;;;;;;;2.80;1.33;;;16.10;99.90;;;;;;5047855;28;20210;-73
2023/07/01 00:11:19;;;;;;;4.43;1.73;;;16.00;99.90;;;;;;5047819;28;20423;-73
2023/07/01 00:13:45;;;;;;;5.23;1.73;;;16.00;99.90;;;;;;5034325;28;20413;-73
2023/07/01 00:16:13;;;;;;;4.30;1.40;;;16.10;99.90;;;;;;5040325;28;20425;-73
2023/07/01 00:18:42;;;;;;;5.77;1.10;;;16.00;99.90;;;;;;5054322;28;20177;-73
2023/07/01 00:21:08;;;;;;;3.20;1.63;;;15.90;99.90;;;;;;5040841;28;20420;-73
2023/07/01 00:23:34;;;;;;;3.30;1.53;;;15.90;99.90;;;;;;5067604;28;20420;-73
2023/07/01 00:26:00;;;;;;;4.40;2.07;;;15.80;99.90;;;;;;5054101;28;20432;-73
2023/07/01 00:28:26;;;;;;;4.40;1.80;;;15.70;99.90;;;;;;5054034;28;20505;-73
2023/07/01 00:30:52;;;;;;;3.60;1.50;;;15.70;99.90;;;;;;5033824;28;20408;-73
2023/07/01 00:33:17;;;;;;;2.63;1.17;;;15.50;99.90;;;;;;5051923;28;20209;-73
2023/07/01 00:35:43;;;;;;;3.70;1.70;;;15.40;99.90;;;;;;5047458;28;20187;-73
2023/07/01 00:38:09;;;;;;;2.70;1.53;;;15.40;99.90;;;;;;5047326;28;20630;-73
2023/07/01 00:40:34;;;;;;;2.60;1.47;;;15.30;99.90;;;;;;5046893;28;20190;-73
2023/07/01 00:43:00;;;;;;;2.77;1.50;;;15.30;99.90;;;;;;5033554;28;20194;-73
2023/07/01 00:45:26;;;;;;;3.63;1.20;;;15.20;99.90;;;;;;5033895;28;20211;-73
2023/07/01 00:47:51;;;;;;;2.70;1.13;;;15.10;99.90;;;;;;5033812;28;20174;-73
2023/07/01 00:50:17;;;;;;;3.60;1.63;;;15.10;99.90;;;;;;5033674;28;20490;-73
2023/07/01 00:52:43;;;;;;;1.93;1.03;;;15.00;99.90;;;;;;5046872;28;20185;-73
2023/07/01 00:55:10;;;;;;;2.17;1.30;;;15.00;99.90;;;;;;5040345;28;20539;-73
2023/07/01 00:57:36;;;;;;;2.70;1.53;;;14.90;99.90;;;;;;5039840;28;20424;-73
2023/07/01 01:00:08;;;;;;;3.87;1.73;;;14.90;99.90;;;;;;5066599;28;20424;-73
2023/07/01 01:02:55;;;;;;;4.13;1.40;;;14.90;99.90;;;;;;5038606;28;20467;-73
2023/07/01 01:05:42;;;;;;;4.03;1.47;;;14.80;99.90;;;;;;5053724;28;20431;-73
2023/07/01 01:08:50;;;;;;;2.73;1.50;;;14.90;99.90;;;;;;5072580;28;20478;-72
2023/07/01 01:11:16;;;;;;;4.57;1.30;;;14.80;99.90;;;;;;5044324;28;20433;-72
2023/07/01 01:13:43;;;;;;;3.83;1.83;;;14.90;99.90;;;;;;5046023;28;20427;-72
2023/07/01 01:16:12;;;;;;;3.37;1.90;;;14.80;99.90;;;;;;5040008;28;20799;-73
2023/07/01 01:18:42;;;;;;;2.80;1.87;;;14.70;99.90;;;;;;5039581;28;20421;-73
2023/07/01 01:21:09;;;;;;;2.47;1.60;;;14.70;99.90;;;;;;5040286;28;20517;-73
2023/07/01 01:23:56;;;;;;;2.57;1.50;;;14.70;99.90;;;;;;5052446;28;20443;-73
2023/07/01 01:26:22;;;;;;;6.53;1.67;;;14.70;99.90;;;;;;5042968;28;20775;-72
2023/07/01 01:28:49;;;;;;;4.00;1.80;;;14.70;99.90;;;;;;5038682;28;20852;-72
2023/07/01 01:31:15;;;;;;;3.00;1.53;;;14.60;99.90;;;;;;5052487;28;21187;-73
2023/07/01 01:33:41;;;;;;;3.07;1.50;;;14.60;99.90;;;;;;5066159;28;20421;-73
2023/07/01 01:36:37;;;;;;;11.33;2.53;;;14.60;99.90;;;;;;5042523;28;20228;-73
2023/07/01 01:39:05;;;;;;;2.50;1.30;;;14.50;99.90;;;;;;5038633;28;20467;-73
2023/07/01 01:41:48;;;;;;;3.10;2.03;;;14.50;99.90;;;;;;5054205;28;20444;-73
2023/07/01 01:44:22;;;;;;;2.73;1.10;;;14.50;99.90;;;;;;5061718;28;20427;-72
2023/07/01 01:46:48;;;;;;;3.70;1.93;;;14.40;99.90;;;;;;5047703;28;20424;-72
2023/07/01 01:49:15;;;;;;;3.93;1.63;;;14.40;99.90;;;;;;5055685;28;20862;-73
2023/07/01 01:51:41;;;;;;;2.50;1.60;;;14.40;99.90;;;;;;5072204;28;20866;-73
2023/07/01 01:54:10;;;;;;;6.20;1.80;;;14.40;99.90;;;;;;5061056;28;21021;-73
2023/07/01 01:56:37;;;;;;;5.10;1.90;;;14.40;99.90;;;;;;5034306;28;20762;-73
2023/07/01 01:59:03;;;;;;;6.30;2.13;;;14.40;99.90;;;;;;5032896;28;20452;-73
2023/07/01 02:01:28;;;;;;;3.70;1.63;;;14.40;99.90;;;;;;5050991;28;20449;-73
2023/07/01 02:03:55;;;;;;;2.87;1.47;;;14.30;99.90;;;;;;5040867;28;20457;-72
2023/07/01 02:06:20;;;;;;;5.83;1.40;;;14.30;99.90;;;;;;5032633;28;20228;-72
2023/07/01 02:08:46;;;;;;;2.67;1.50;;;14.30;99.90;;;;;;5057928;28;20474;-72
2023/07/01 02:11:12;;;;;;;2.77;1.87;;;14.20;99.90;;;;;;5052924;28;20219;-72
2023/07/01 02:13:37;;;;;;;3.10;1.60;;;14.20;99.90;;;;;;5065559;28;20578;-72
2023/07/01 02:16:03;;;;;;;3.57;1.60;;;14.20;99.90;;;;;;5053976;28;20185;-72
2023/07/01 02:18:29;;;;;;;2.37;1.60;;;14.10;99.90;;;;;;5053174;28;20724;-73
2023/07/01 02:20:54;;;;;;;5.10;1.80;;;14.10;99.90;;;;;;5039198;28;20216;-72
2023/07/01 02:23:20;;;;;;;5.30;1.93;;;14.00;99.90;;;;;;5051833;28;20634;-73
2023/07/01 02:25:46;;;;;;;2.77;1.43;;;13.90;99.90;;;;;;5052547;28;20268;-73
2023/07/01 02:28:13;;;;;;;7.93;2.17;;;13.90;99.90;;;;;;5039647;28;20210;-73
2023/07/01 02:30:39;;;;;;;5.07;2.00;;;13.90;99.90;;;;;;5036157;28;20166;-73
2023/07/01 02:33:04;;;;;;;3.77;1.80;;;13.90;99.90;;;;;;5051783;28;20729;-73
2023/07/01 02:35:30;;;;;;;10.50;2.33;;;13.90;99.90;;;;;;5038750;28;20185;-73
2023/07/01 02:37:55;;;;;;;2.77;1.70;;;13.90;99.90;;;;;;5039652;28;20191;-73
2023/07/01 02:40:21;;;;;;;3.00;1.60;;;13.80;99.90;;;;;;5032189;28;20539;-73
2023/07/01 02:42:46;;;;;;;5.67;2.07;;;13.80;99.90;;;;;;5043929;28;20193;-73
2023/07/01 02:45:13;;;;;;;4.20;2.10;;;13.80;99.90;;;;;;5046192;28;20182;-73
2023/07/01 02:47:38;;;;;;;4.30;2.40;;;13.80;99.90;;;;;;5031702;28;20177;-73
2023/07/01 02:50:04;;;;;;;3.13;1.70;;;13.80;99.90;;;;;;5043364;28;21010;-73
2023/07/01 02:52:30;;;;;;;2.43;1.67;;;13.80;99.90;;;;;;5071454;28;20656;-73
2023/07/01 02:54:56;;;;;;;7.77;1.83;;;13.80;99.90;;;;;;5058290;28;20407;-73
2023/07/01 02:57:22;;;;;;;3.03;2.00;;;13.80;99.90;;;;;;5071633;28;20505;-73
2023/07/01 02:59:48;;;;;;;1.80;1.20;;;13.80;99.90;;;;;;5065969;28;20657;-73
2023/07/01 03:02:14;;;;;;;7.23;2.93;;;13.80;99.90;;;;;;5051172;28;20514;-73
2023/07/01 03:04:40;;;;;;;3.20;1.40;;;13.70;99.90;;;;;;5032860;28;21061;-73
2023/07/01 03:07:05;;;;;;;6.77;2.53;;;13.70;99.90;;;;;;5043509;28;20664;-73
2023/07/01 03:09:31;;;;;;;2.23;1.43;;;13.70;99.90;;;;;;5038274;28;20611;-73
2023/07/01 03:11:56;;;;;;;2.80;1.90;;;13.70;99.90;;;;;;5039293;28;20209;-72
2023/07/01 03:14:22;;;;;;;4.97;1.67;;;13.70;99.90;;;;;;5036863;28;20631;-72
2023/07/01 03:16:49;;;;;;;2.77;1.57;;;13.70;99.90;;;;;;5051647;28;20249;-72
2023/07/01 03:19:15;;;;;;;5.00;1.90;;;13.70;99.90;;;;;;5064659;28;20182;-72
2023/07/01 03:21:41;;;;;;;3.70;2.53;;;13.70;99.90;;;;;;5038699;28;20417;-72
2023/07/01 03:24:07;;;;;;;3.63;1.93;;;13.80;99.90;;;;;;5031538;28;20194;-72
2023/07/01 03:26:32;;;;;;;5.63;2.17;;;13.70;99.90;;;;;;5031542;28;20194;-72
2023/07/01 03:28:58;;;;;;;5.23;1.77;;;13.80;99.90;;;;;;5031492;28;20198;-72
2023/07/01 03:31:24;;;;;;;2.30;1.60;;;13.70;99.90;;;;;;5031082;28;20215;-72
2023/07/01 03:33:50;;;;;;;13.53;2.60;;;13.70;99.90;;;;;;5054647;28;20265;-72
2023/07/01 03:36:16;;;;;;;2.63;1.73;;;13.80;99.90;;;;;;5046765;28;20174;-72
2023/07/01 03:38:42;;;;;;;4.13;2.53;;;13.80;99.90;;;;;;5068305;28;20186;-72
2023/07/01 03:41:08;;;;;;;3.87;2.43;;;13.90;99.90;;;;;;5042795;28;20417;-72
2023/07/01 03:43:36;;;;;;;3.23;1.83;;;13.80;99.90;;;;;;5066320;28;20193;-72
2023/07/01 03:46:02;;;;;;;3.50;1.97;;;13.90;99.90;;;;;;5066539;28;20189;-72
2023/07/01 03:48:28;;;;;;;3.90;2.00;;;13.90;99.90;;;;;;5055725;28;20487;-72
2023/07/01 03:50:54;;;;;;;7.37;3.23;;;14.00;99.90;;;;;;5042602;28;20678;-72
2023/07/01 03:53:19;;;;;;;3.30;1.90;;;14.00;99.90;;;;;;5047661;28;20175;-72
2023/07/01 03:55:45;;;;;;;3.47;2.00;;;14.10;99.90;;;;;;5059163;28;20547;-72
2023/07/01 03:58:11;;;;;;;2.20;1.70;;;14.00;99.90;;;;;;5069316;28;20549;-72
2023/07/01 04:00:36;;;;;;;4.43;2.60;;;14.10;99.90;;;;;;5042419;28;20174;-72
2023/07/01 04:03:05;;;;;;;3.57;1.93;;;14.10;99.90;;;;;;5047809;28;20631;-72
2023/07/01 04:05:34;;;;;;;5.10;2.40;;;14.10;99.90;;;;;;5046569;28;20178;-72
2023/07/01 04:08:00;;;;;;;3.70;2.07;;;14.10;99.90;;;;;;5033966;28;20802;-72
2023/07/01 04:10:26;;;;;;;6.43;2.40;;;14.10;99.90;;;;;;5047577;28;20420;-72
2023/07/01 04:12:52;;;;;;;3.13;1.70;;;14.10;99.90;;;;;;5047820;28;20428;-73
2023/07/01 04:15:17;;;;;;;5.80;2.40;;;14.10;99.90;;;;;;5034464;28;20513;-73
2023/07/01 04:17:45;;;;;;;2.67;1.30;;;14.00;99.90;;;;;;5038948;28;20174;-73
2023/07/01 04:20:13;;;;;;;2.97;2.17;;;14.00;99.90;;;;;;5054001;28;20197;-73
2023/07/01 04:22:39;;;;;;;3.67;1.87;;;14.00;99.90;;;;;;5047042;28;20455;-73
2023/07/01 04:25:06;;;;;;;3.77;2.00;;;13.90;99.90;;;;;;5047854;28;20432;-73
2023/07/01 04:27:32;;;;;;;4.40;2.47;;;14.00;99.90;;;;;;5034376;28;20424;-73
2023/07/01 04:29:57;;;;;;;3.70;2.20;;;14.00;99.90;;;;;;5038153;28;20493;-73
2023/07/01 04:32:23;;;;;;;5.10;2.60;;;14.10;99.90;;;;;;5053530;28;20521;-73
2023/07/01 04:34:49;;;;;;;4.73;2.40;;;14.10;99.90;;;;;;5053876;28;20176;-73
2023/07/01 04:37:15;;;;;;;4.07;2.87;;;14.10;99.90;;;;;;5053818;28;20177;-73
2023/07/01 04:39:41;;;;;;;12.93;2.73;;;14.10;99.90;;;;;;5040798;28;20436;-73
2023/07/01 04:42:07;;;;;;;4.00;2.00;;;14.20;99.90;;;;;;5033731;28;20194;-73
2023/07/01 04:44:32;;;;;;;3.83;1.93;;;14.20;99.90;;;;;;5046784;28;20416;-73
2023/07/01 04:46:58;;;;;;;4.10;2.00;;;14.10;99.90;;;;;;5033771;28;20209;-73
2023/07/01 04:49:24;;;;;;;4.40;2.70;;;14.30;99.90;;;;;;5046876;28;20289;-73
2023/07/01 04:51:50;;;;;;;3.20;2.30;;;14.30;99.90;;;;;;5040097;28;20428;-73
2023/07/01 04:54:15;;;;;;;2.40;1.50;;;14.30;99.90;;;;;;5040558;28;20193;-73
2023/07/01 04:56:41;;;;;;;4.57;2.13;;;14.40;99.90;;;;;;5059654;28;20235;-73
2023/07/01 04:59:07;;;;;;;11.50;1.80;;;14.40;99.90;;;;;;5060410;28;20657;-72
2023/07/01 05:01:32;;;;;;;3.00;2.00;;;14.50;99.90;;;;;;5033700;28;20209;-72
2023/07/01 05:03:58;;;;;;;6.70;2.00;;;14.50;99.90;;;;;;5046426;28;20181;-72
2023/07/01 05:06:24;;;;;;;4.20;1.97;;;14.50;99.90;;;;;;5033701;28;20198;-72
2023/07/01 05:08:49;;;;;;;3.53;2.00;;;14.60;99.90;;;;;;5034252;28;20264;-72
2023/07/01 05:11:15;;;;;;;3.57;2.13;;;14.70;99.90;;;;;;5039389;28;20189;-72
2023/07/01 05:13:40;;;;;;;8.00;2.30;;;14.70;99.90;;;;;;5053245;28;20563;-72
2023/07/01 05:16:06;;;;;;;4.37;2.57;;;14.80;99.90;;;;;;5046789;28;20625;-72
2023/07/01 05:18:31;;;;;;;4.80;2.70;;;14.90;99.90;;;;;;5046102;28;20270;-72
2023/07/01 05:20:57;;;;;;;3.90;1.90;;;15.00;99.90;;;;;;5052931;28;20197;-72
2023/07/01 05:23:23;;;;;;;3.50;2.17;;;15.10;99.90;;;;;;5065537;28;20220;-72
2023/07/01 05:25:49;;;;;;;7.60;2.60;;;15.30;99.90;;;;;;5067065;28;20792;-71
2023/07/01 05:28:15;;;;;;;4.77;2.03;;;15.20;99.90;;;;;;5040218;28;20194;-72
2023/07/01 05:30:41;;;;;;;3.30;2.20;;;15.30;99.90;;;;;;5037367;28;20408;-72
2023/07/01 05:33:06;;;;;;;3.00;1.53;;;15.40;99.90;;;;;;5052613;28;20367;-72
2023/07/01 05:35:32;;;;;;;3.73;1.73;;;15.50;99.90;;;;;;5052719;28;20181;-72
2023/07/01 05:37:57;;;;;;;3.40;1.47;;;15.60;99.90;;;;;;5039680;28;20270;-72
2023/07/01 05:40:23;;;;;;;4.80;2.67;;;15.60;99.90;;;;;;5046300;28;20289;-72
2023/07/01 05:42:49;;;;;;;2.20;1.70;;;15.70;99.90;;;;;;5035018;28;20216;-73
2023/07/01 05:45:15;;;;;;;2.73;1.70;;;15.80;99.90;;;;;;5047455;28;20546;-73
2023/07/01 05:47:40;;;;;;;3.93;1.63;;;15.90;99.90;;;;;;5032693;28;20416;-73
2023/07/01 05:50:06;;;;;;;2.70;2.00;;;16.10;99.90;;;;;;5038393;28;20731;-73
2023/07/01 05:52:32;;;;;;;4.40;1.50;;;16.00;99.90;;;;;;5039955;28;20574;-73
2023/07/01 05:54:57;;;;;;;3.30;1.70;;;16.00;99.90;;;;;;5037772;28;20451;-73
2023/07/01 05:57:23;;;;;;;3.47;1.57;;;16.10;99.90;;;;;;5040196;28;20538;-73
2023/07/01 05:59:49;;;;;;;8.60;2.47;;;16.20;99.90;;;;;;5038349;28;20630;-72
2023/07/01 06:02:15;;;;;;;2.53;1.23;;;16.20;99.90;;;;;;5052268;28;20850;-73
2023/07/01 06:04:40;;;;;;;3.50;1.33;;;16.30;99.90;;;;;;5038912;28;20467;-73
2023/07/01 06:07:06;;;;;;;2.83;1.47;;;16.30;99.90;;;;;;5038859;28;20205;-73
2023/07/01 06:09:32;;;;;;;6.10;1.53;;;16.40;99.90;;;;;;5056756;28;20208;-72
2023/07/01 06:11:57;;;;;;;2.70;1.50;;;16.50;99.90;;;;;;5059580;28;20272;-72
2023/07/01 06:14:23;;;;;;;2.60;1.50;;;16.50;99.90;;;;;;5032970;28;20639;-72
2023/07/01 06:16:49;;;;;;;5.70;1.83;;;16.50;99.90;;;;;;5044354;28;20185;-72
2023/07/01 06:19:14;;;;;;;2.27;1.47;;;16.60;99.90;;;;;;5033391;28;20260;-72
2023/07/01 06:21:40;;;;;;;2.43;1.33;;;16.60;99.90;;;;;;5044256;28;20603;-72
2023/07/01 06:24:05;;;;;;;5.50;1.50;;;16.70;99.90;;;;;;5046355;28;20190;-72
2023/07/01 06:26:31;;;;;;;3.13;1.60;;;16.80;99.90;;;;;;5044530;28;20197;-72
2023/07/01 06:28:57;;;;;;;2.13;1.30;;;16.90;99.90;;;;;;5032862;28;20217;-72
2023/07/01 06:31:22;;;;;;;3.10;1.33;;;16.90;99.90;;;;;;5044233;28;20641;-73
2023/07/01 06:33:48;;;;;;;2.77;1.30;;;17.00;99.90;;;;;;5038695;28;20296;-73
2023/07/01 06:36:17;;;;;;;2.07;1.10;;;17.00;99.90;;;;;;5039310;28;20178;-72
2023/07/01 06:38:43;;;;;;;4.97;2.10;;;17.20;99.90;;;;;;5045390;28;20202;-72
2023/07/01 06:41:08;;;;;;;5.30;2.00;;;17.20;99.90;;;;;;5044114;28;20523;-72
2023/07/01 06:43:38;;;;;;;2.83;1.17;;;17.20;99.90;;;;;;5037876;28;20855;-72
2023/07/01 06:46:03;;;;;;;10.23;1.50;;;17.30;99.90;;;;;;5051621;28;20567;-72
2023/07/01 06:48:29;;;;;;;3.13;1.53;;;17.30;99.90;;;;;;5038197;28;20550;-72
2023/07/01 06:50:54;;;;;;;2.97;1.60;;;17.40;99.90;;;;;;5051681;28;20690;-72
2023/07/01 06:53:20;;;;;;;2.37;1.13;;;17.50;99.90;;;;;;5043957;28;20185;-72
2023/07/01 06:55:46;;;;;;;2.33;1.27;;;17.60;99.90;;;;;;5059006;28;20187;-72
2023/07/01 06:58:11;;;;;;;3.23;1.40;;;17.70;99.90;;;;;;5051478;28;20186;-72
2023/07/01 07:00:37;;;;;;;7.43;1.77;;;17.80;99.90;;;;;;5039025;28;20606;-72
2023/07/01 07:03:03;;;;;;;2.37;1.30;;;17.80;99.90;;;;;;5031866;28;20217;-72
2023/07/01 07:05:29;;;;;;;9.77;2.27;;;18.00;99.90;;;;;;5031720;28;20261;-72
2023/07/01 07:07:55;;;;;;;3.70;1.60;;;18.10;99.90;;;;;;5052895;28;20566;-72
2023/07/01 07:10:21;;;;;;;3.00;1.37;;;18.20;99.90;;;;;;5055351;28;20460;-72
2023/07/01 07:12:46;;;;;;;2.57;1.47;;;18.40;99.90;;;;;;5049626;28;20627;-73
2023/07/01 07:15:12;;;;;;;4.87;1.80;;;18.60;99.30;;;;;;5047688;28;20192;-72
2023/07/01 07:17:38;;;;;;;2.00;1.20;;;18.50;99.70;;;;;;5041834;28;20219;-72
2023/07/01 07:20:03;;;;;;;6.17;1.63;;;18.80;99.00;;;;;;5055433;28;20204;-73
2023/07/01 07:22:29;;;;;;;1.70;0.90;;;18.90;98.90;;;;;;5068558;28;20358;-73
2023/07/01 07:24:57;;;;;;;3.53;1.63;;;19.10;99.40;;;;;;5064970;28;20211;-73
2023/07/01 07:27:22;;;;;;;2.43;1.43;;;19.40;98.30;;;;;;5070107;28;20193;-72
2023/07/01 07:29:48;;;;;;;4.03;1.40;;;19.50;98.70;;;;;;5055065;28;20515;-73
2023/07/01 07:32:14;;;;;;;2.90;1.40;;;19.70;97.80;;;;;;5040814;28;20181;-73
2023/07/01 07:34:39;;;;;;;2.33;0.97;;;20.10;96.90;;;;;;5047130;28;20243;-73
2023/07/01 07:37:05;;;;;;;3.23;1.30;;;20.60;96.50;;;;;;5040035;28;20220;-73
2023/07/01 07:39:31;;;;;;;3.53;1.23;;;20.70;95.70;;;;;;5065859;28;20188;-73
2023/07/01 07:41:56;;;;;;;7.20;1.30;;;20.90;94.80;;;;;;5069268;28;20470;-73
2023/07/01 07:44:22;;;;;;;5.87;1.87;;;21.30;93.60;;;;;;5044908;28;20217;-72
2023/07/01 07:46:48;;;;;;;1.97;1.10;;;22.00;92.80;;;;;;5051786;28;20185;-73
2023/07/01 07:49:14;;;;;;;3.00;1.10;;;22.50;91.40;;;;;;5054583;28;20235;-72
2023/07/01 07:51:39;;;;;;;2.40;1.20;;;22.60;91.40;;;;;;5045307;28;20176;-73
2023/07/01 07:54:05;;;;;;;2.73;1.20;;;22.80;91.20;;;;;;5074638;28;20192;-73
2023/07/01 07:56:30;;;;;;;2.23;1.23;;;23.10;90.30;;;;;;5070734;28;20618;-74
2023/07/01 07:58:56;;;;;;;3.20;1.43;;;23.40;90.50;;;;;;5054800;28;20181;-74
2023/07/01 08:01:22;;;;;;;2.57;1.30;;;23.80;90.10;;;;;;5044655;28;20189;-74
2023/07/01 08:03:48;;;;;;;3.40;1.17;;;24.00;90.00;;;;;;5060644;28;20772;-73
2023/07/01 08:06:13;;;;;;;2.70;1.20;;;23.40;88.70;;;;;;5065460;28;20181;-72
2023/07/01 08:08:39;;;;;;;3.93;1.57;;;24.00;86.90;;;;;;5053775;28;20331;-73
2023/07/01 08:11:04;;;;;;;2.87;1.20;;;23.30;87.50;;;;;;5053031;28;20192;-73
2023/07/01 08:13:30;;;;;;;3.50;1.10;;;23.10;89.30;;;;;;5053975;28;20174;-73
2023/07/01 08:15:57;;;;;;;2.33;1.53;;;23.10;89.40;;;;;;5035211;28;20490;-73
2023/07/01 08:18:23;;;;;;;3.23;1.50;;;23.20;89.40;;;;;;5044963;28;20177;-73
2023/07/01 08:20:50;;;;;;;3.67;1.87;;;23.30;89.90;;;;;;5066363;28;21061;-73
2023/07/01 08:23:16;;;;;;;2.13;1.23;;;23.30;84.70;;;;;;5065258;28;20180;-73
2023/07/01 08:25:43;;;;;;;3.17;1.43;;;22.80;84.30;;;;;;5067882;28;20424;-72
2023/07/01 08:28:09;;;;;;;2.30;1.17;;;22.10;85.60;;;;;;5065305;28;20576;-73
2023/07/01 08:30:35;;;;;;;2.50;1.40;;;21.90;86.30;;;;;;5051704;28;20458;-72
2023/07/01 08:33:01;;;;;;;2.23;1.20;;;22.20;85.40;;;;;;5052965;28;20510;-73
2023/07/01 08:35:28;;;;;;;4.33;1.37;;;22.40;86.10;;;;;;5061179;28;20496;-73
2023/07/01 08:37:54;;;;;;;2.13;1.03;;;22.90;84.30;;;;;;5045232;28;20174;-73
2023/07/01 08:40:20;;;;;;;2.50;1.33;;;23.30;83.80;;;;;;5071558;28;20441;-72
2023/07/01 08:42:50;;;;;;;2.73;1.10;;;23.80;81.60;;;;;;5070281;28;20267;-72
2023/07/01 08:45:20;;;;;;;2.47;1.30;;;23.60;81.90;;;;;;5072246;28;20290;-73
2023/07/01 08:47:47;;;;;;;2.97;1.33;;;23.70;82.90;;;;;;5071664;28;20773;-72
2023/07/01 08:50:18;;;;;;;1.60;0.83;;;24.30;81.70;;;;;;5044599;28;20471;-71
2023/07/01 08:52:46;;;;;;;2.27;1.23;;;24.00;82.20;;;;;;5050837;28;20442;-71
2023/07/01 08:55:12;;;;;;;2.60;1.17;;;24.00;80.20;;;;;;5062021;28;20671;-70
2023/07/01 08:57:41;;;;;;;1.70;0.80;;;23.80;79.70;;;;;;5066897;28;20423;-71
2023/07/01 09:00:14;;;;;;;4.27;1.50;;;23.60;81.40;;;;;;5055952;28;20679;-72
2023/07/01 09:02:41;;;;;;;2.03;1.07;;;23.70;81.90;;;;;;5044037;28;20510;-72
2023/07/01 09:05:07;;;;;;;1.83;0.90;;;23.50;80.00;;;;;;5050892;28;20796;-71
2023/07/01 09:07:32;;;;;;;2.77;1.23;;;23.70;78.50;;;;;;5058463;28;20439;-71
2023/07/01 09:10:00;;;;;;;1.93;0.97;;;23.50;78.00;;;;;;5066222;28;20241;-71
2023/07/01 09:12:27;;;;;;;1.90;1.10;;;23.40;76.60;;;;;;5058232;28;20220;-71
2023/07/01 09:15:03;;;;;;;5.17;0.80;;;23.40;78.40;;;;;;5053754;28;20506;-71
2023/07/01 09:17:34;;;;;;;3.10;1.10;;;23.50;76.80;;;;;;5065103;28;20546;-71
2023/07/01 09:20:03;;;;;;;1.67;0.83;;;23.70;77.80;;;;;;5063147;28;20878;-71
2023/07/01 09:22:29;;;;;;;4.57;1.17;;;23.80;76.50;;;;;;5048367;28;20420;-71
2023/07/01 09:24:56;;;;;;;9.57;1.67;;;24.10;76.60;;;;;;5064570;28;20427;-71
2023/07/01 09:27:22;;;;;;;3.10;1.07;;;24.30;75.90;;;;;;5048523;28;20186;-71
2023/07/01 09:29:47;;;;;;;1.97;0.83;;;24.70;74.70;;;;;;5045000;28;20565;-71
2023/07/01 09:32:28;;;;;;;1.87;1.00;;;24.60;75.30;;;;;;5051376;28;20268;-70
2023/07/01 09:34:58;;;;;;;1.80;0.90;;;24.30;74.50;;;;;;5060237;28;20628;-72
2023/07/01 09:37:25;;;;;;;3.30;1.00;;;24.20;74.70;;;;;;5072288;28;20442;-71
2023/07/01 09:39:51;;;;;;;3.10;1.07;;;24.50;73.40;;;;;;5056961;28;20227;-71
2023/07/01 09:42:18;;;;;;;1.80;0.93;;;24.50;72.00;;;;;;5046978;28;20177;-72
2023/07/01 09:45:07;;;;;;;2.17;0.90;;;24.30;69.80;;;;;;5055986;28;20181;-73
2023/07/01 09:47:33;;;;;;;7.33;0.80;;;23.60;69.80;;;;;;5040574;28;20193;-71
2023/07/01 09:50:01;;;;;;;2.97;0.80;;;23.50;70.10;;;;;;5049971;28;21150;-71
2023/07/01 09:52:34;;;;;;;1.60;0.70;;;23.90;71.50;;;;;;5051610;28;21061;-71
2023/07/01 09:55:02;;;;;;;6.97;1.40;;;24.00;70.50;;;;;;5071172;28;20418;-71
2023/07/01 09:57:29;;;;;;;2.50;1.20;;;24.00;68.70;;;;;;5058723;28;21092;-71
2023/07/01 09:59:55;;;;;;;2.83;1.00;;;23.80;69.10;;;;;;5071402;28;20479;-72
2023/07/01 10:02:24;;;;;;;1.77;0.93;;;23.40;69.10;;;;;;5070709;28;20427;-71
2023/07/01 10:04:52;;;;;;;2.90;1.07;;;23.30;70.50;;;;;;5058379;28;20185;-71
2023/07/01 10:07:17;;;;;;;3.03;1.27;;;23.20;71.30;;;;;;5040750;28;20450;-72
2023/07/01 10:09:44;;;;;;;1.57;0.70;;;23.00;71.50;;;;;;5064625;28;20451;-71
2023/07/01 10:12:13;;;;;;;6.43;1.20;;;22.90;71.70;;;;;;5037520;28;20183;-73
2023/07/01 10:14:39;;;;;;;2.57;1.10;;;23.00;70.90;;;;;;5056695;28;20532;-71
2023/07/01 10:17:05;;;;;;;2.23;1.10;;;23.30;71.50;;;;;;5059747;28;20981;-72
2023/07/01 10:19:32;;;;;;;4.90;0.87;;;23.50;70.10;;;;;;5064471;28;20546;-72
2023/07/01 10:22:23;;;;;;;2.00;0.90;;;23.50;71.30;;;;;;5064594;28;20656;-72
2023/07/01 10:25:06;;;;;;;4.33;1.23;;;23.70;70.20;;;;;;5071391;28;20462;-71
2023/07/01 10:27:41;;;;;;;1.80;0.80;;;23.80;67.90;;;;;;5064750;28;20461;-72
2023/07/01 10:30:08;;;;;;;2.80;1.20;;;23.90;63.60;;;;;;5058925;28;20490;-73
2023/07/01 10:32:34;;;;;;;2.20;0.97;;;24.10;66.10;;;;;;5048113;28;20456;-72
2023/07/01 10:35:00;;;;;;;6.33;1.50;;;24.30;66.30;;;;;;5051204;28;20454;-71
2023/07/01 10:37:27;;;;;;;4.70;1.50;;;24.10;64.60;;;;;;5043798;28;20627;-73
2023/07/01 10:39:57;;;;;;;5.20;1.83;;;23.80;66.60;;;;;;5059885;28;20203;-71
2023/07/01 10:42:33;;;;;;;4.10;1.67;;;23.50;65.20;;;;;;5073653;28;20411;-71
2023/07/01 10:45:11;;;;;;;7.00;1.40;;;23.70;66.10;;;;;;5056698;28;20449;-71
2023/07/01 10:47:37;;;;;;;2.57;1.33;;;23.90;65.20;;;;;;5035138;28;20822;-70
2023/07/01 10:50:05;;;;;;;2.70;1.40;;;24.00;62.00;;;;;;5069838;28;20454;-70
2023/07/01 10:52:32;;;;;;;5.23;1.57;;;24.00;63.80;;;;;;5074104;28;20415;-73
2023/07/01 10:55:00;;;;;;;2.03;1.40;;;23.90;63.00;;;;;;5054009;28;20417;-73
2023/07/01 10:57:26;;;;;;;7.30;1.70;;;23.80;63.40;;;;;;5057267;28;20738;-72
2023/07/01 11:00:30;;;;;;;2.40;1.60;;;23.60;64.30;;;;;;5074424;28;20414;-72
2023/07/01 11:02:56;;;;;;;6.00;1.83;;;23.60;64.70;;;;;;5047401;28;20609;-72
2023/07/01 11:05:28;;;;;;;3.40;1.40;;;23.80;64.30;;;;;;5075067;28;20422;-72
2023/07/01 11:07:55;;;;;;;3.00;1.20;;;24.00;64.70;;;;;;5055634;28;20206;-71
2023/07/01 11:10:21;;;;;;;3.30;2.10;;;24.10;63.20;;;;;;5056961;28;20463;-72
2023/07/01 11:12:46;;;;;;;3.20;1.90;;;24.00;60.90;;;;;;5041818;28;20419;-72
2023/07/01 11:15:19;;;;;;;2.10;1.27;;;24.00;63.30;;;;;;5043676;28;20178;-71
2023/07/01 11:17:53;;;;;;;4.30;1.80;;;23.60;63.10;;;;;;5054931;28;20736;-72
2023/07/01 11:20:18;;;;;;;6.77;2.17;;;23.60;64.30;;;;;;5042479;28;20451;-71
2023/07/01 11:22:44;;;;;;;3.83;2.03;;;23.90;64.70;;;;;;5060977;28;20420;-73
2023/07/01 11:25:09;;;;;;;2.60;1.50;;;24.20;65.10;;;;;;5048879;28;20625;-72
2023/07/01 11:27:42;;;;;;;3.67;1.20;;;24.30;65.90;;;;;;5048020;28;20692;-72
2023/07/01 11:30:08;;;;;;;3.90;1.90;;;24.40;65.70;;;;;;5059530;28;20291;-72
2023/07/01 11:32:34;;;;;;;4.60;1.60;;;24.20;65.50;;;;;;5054312;28;20432;-72
2023/07/01 11:34:59;;;;;;;6.97;1.83;;;24.00;68.20;;;;;;5055792;28;20627;-72
2023/07/01 11:37:27;;;;;;;4.97;2.30;;;24.10;67.40;;;;;;5066567;28;20251;-72
2023/07/01 11:39:53;;;;;;;3.73;1.33;;;23.80;67.40;;;;;;5058526;28;20182;-72
2023/07/01 11:42:19;;;;;;;3.40;1.70;;;23.50;67.00;;;;;;5052181;28;20426;-72
2023/07/01 11:44:44;;;;;;;3.07;1.20;;;23.30;68.80;;;;;;5041924;28;20197;-72
2023/07/01 11:47:12;;;;;;;3.37;1.60;;;23.20;70.60;;;;;;5064438;28;20937;-71
2023/07/01 11:49:38;;;;;;;3.33;1.93;;;23.40;70.60;;;;;;5054187;28;20242;-72
2023/07/01 11:52:09;;;;;;;2.43;1.33;;;23.30;70.10;;;;;;5053998;28;20869;-72
2023/07/01 11:54:47;;;;;;;2.00;0.93;;;23.20;70.30;;;;;;5054449;28;20173;-71
2023/07/01 11:57:14;;;;;;;2.30;1.43;;;23.00;71.50;;;;;;5044436;28;20409;-72
2023/07/01 11:59:53;;;;;;;3.03;1.10;;;22.90;72.50;;;;;;5033659;28;20782;-71
2023/07/01 12:02:27;;;;;;;2.30;1.53;;;22.80;71.90;;;;;;5034849;28;20401;-71
2023/07/01 12:04:52;;;;;;;5.80;2.20;;;22.50;73.20;;;;;;5048616;28;20473;-71
2023/07/01 12:07:18;;;;;;;34.40;15.43;;;22.40;73.00;;;;;;5060611;28;20944;-72
2023/07/01 12:09:45;;;;;;;14.83;4.47;;;22.20;74.30;;;;;;5054748;28;20197;-72
2023/07/01 12:12:32;;;;;;;2.37;0.80;;;22.10;74.90;;;;;;5067722;28;20280;-72
2023/07/01 12:15:01;;;;;;;2.77;1.30;;;22.20;75.80;;;;;;5054960;28;20496;-72
2023/07/01 12:17:31;;;;;;;2.70;1.23;;;22.40;77.80;;;;;;5051473;28;20405;-73
2023/07/01 12:19:58;;;;;;;2.13;1.07;;;22.50;77.60;;;;;;5045560;28;20450;-73
2023/07/01 12:22:25;;;;;;;3.50;1.80;;;22.40;77.80;;;;;;5037152;28;20425;-75
2023/07/01 12:24:55;;;;;;;2.57;1.40;;;22.40;79.80;;;;;;5035047;28;20416;-73
2023/07/01 12:27:21;;;;;;;2.80;0.90;;;22.40;79.00;;;;;;5034731;28;20409;-73
2023/07/01 12:29:46;;;;;;;1.50;0.80;;;22.30;78.80;;;;;;5035765;28;20470;-71
2023/07/01 12:32:12;;;;;;;2.60;0.93;;;22.40;77.20;;;;;;5057212;28;20259;-72
2023/07/01 12:34:37;;;;;;;3.10;1.23;;;22.30;76.30;;;;;;5053465;28;20261;-72
2023/07/01 12:37:03;;;;;;;27.23;1.50;;;22.10;77.70;;;;;;5039921;28;20182;-72
2023/07/01 12:39:31;;;;;;;2.67;1.27;;;22.30;77.60;;;;;;5065058;28;20181;-72
2023/07/01 12:41:58;;;;;;;3.03;1.10;;;22.10;77.70;;;;;;5068675;28;20809;-71
2023/07/01 12:44:24;;;;;;;5.67;1.23;;;22.10;78.10;;;;;;5052921;28;20409;-72
2023/07/01 12:46:50;;;;;;;3.17;1.30;;;21.90;79.20;;;;;;5059091;28;20425;-73